Time;durP1;ratioP1;P1;durP2;ratioP2;P2;SDS_P1;SDS_P2;PMS_P1;PMS_P2;Temp;Humidity;BMP_temperature;BMP_pressure;BME280_temperature;BME280_humidity;BME280_pressure;Samples;Min_cycle;Max_cycle;Signal;HPM_P1;HPM_P2
2024/01/29 00:02:05;;;;;;;5.80;4.50;;;5.10;99.90;;;;;;5054158;28;20213;-75
2024/01/29 00:04:31;;;;;;;8.55;4.72;;;5.20;99.90;;;;;;5056700;28;20037;-75
2024/01/29 00:06:59;;;;;;;9.20;5.05;;;5.20;99.90;;;;;;5040597;28;20126;-75
2024/01/29 00:09:24;;;;;;;6.45;4.38;;;5.10;99.90;;;;;;5056567;28;20037;-75
2024/01/29 00:11:50;;;;;;;10.35;5.10;;;5.10;99.90;;;;;;5038709;28;20150;-75
2024/01/29 00:14:16;;;;;;;7.38;4.40;;;5.00;99.90;;;;;;5040951;28;20153;-75
2024/01/29 00:16:42;;;;;;;9.68;4.75;;;5.00;99.90;;;;;;5053880;28;20116;-75
2024/01/29 00:19:07;;;;;;;6.90;4.53;;;5.00;99.90;;;;;;5037748;28;20453;-75
2024/01/29 00:21:33;;;;;;;6.80;4.63;;;5.00;99.90;;;;;;5051782;28;21260;-75
2024/01/29 00:24:00;;;;;;;6.85;4.72;;;5.00;99.90;;;;;;5039783;28;20033;-75
2024/01/29 00:26:27;;;;;;;6.55;4.65;;;5.00;99.90;;;;;;5055275;28;20060;-75
2024/01/29 00:28:53;;;;;;;8.02;4.88;;;5.00;99.90;;;;;;5037865;28;20047;-75
2024/01/29 00:31:21;;;;;;;7.13;4.45;;;5.00;99.90;;;;;;5052999;28;20343;-75
2024/01/29 00:33:48;;;;;;;6.45;4.78;;;5.00;99.90;;;;;;5037628;28;20033;-75
2024/01/29 00:36:14;;;;;;;7.88;4.85;;;4.90;99.90;;;;;;5037597;28;20044;-75
2024/01/29 00:38:40;;;;;;;6.18;4.80;;;5.00;99.90;;;;;;5040828;28;20433;-75
2024/01/29 00:41:05;;;;;;;6.57;4.88;;;4.90;99.90;;;;;;5055949;28;20090;-75
2024/01/29 00:43:32;;;;;;;6.28;4.50;;;4.90;99.90;;;;;;5040777;28;20381;-75
2024/01/29 00:45:58;;;;;;;7.03;4.68;;;4.90;99.90;;;;;;5053190;28;20040;-75
2024/01/29 00:48:25;;;;;;;6.38;4.65;;;4.90;99.90;;;;;;5054243;28;20044;-75
2024/01/29 00:50:51;;;;;;;8.55;5.10;;;4.90;99.90;;;;;;5055249;28;20052;-75
2024/01/29 00:53:17;;;;;;;7.18;4.72;;;4.90;99.90;;;;;;5053197;28;20215;-75
2024/01/29 00:55:45;;;;;;;7.78;4.63;;;4.90;99.90;;;;;;5039387;28;20662;-75
2024/01/29 00:58:12;;;;;;;7.40;4.70;;;4.90;99.90;;;;;;5054347;28;20043;-75
2024/01/29 01:00:44;;;;;;;6.65;4.72;;;4.90;99.90;;;;;;5054608;28;20041;-75
2024/01/29 01:03:10;;;;;;;6.78;4.90;;;4.90;99.90;;;;;;5053746;28;20041;-75
2024/01/29 01:05:36;;;;;;;7.82;4.95;;;4.90;99.90;;;;;;5040768;28;20048;-75
2024/01/29 01:08:03;;;;;;;5.63;4.45;;;4.90;99.90;;;;;;5037428;28;20047;-75
2024/01/29 01:10:29;;;;;;;5.95;4.50;;;4.80;99.90;;;;;;5035451;28;20032;-75
2024/01/29 01:12:57;;;;;;;6.82;4.65;;;4.90;99.90;;;;;;5052643;28;20120;-75
2024/01/29 01:15:22;;;;;;;6.88;4.68;;;4.80;1.00;;;;;;5058323;28;20082;-75
2024/01/29 01:17:48;;;;;;;5.75;4.47;;;4.80;1.00;;;;;;5038161;28;20127;-75
2024/01/29 01:20:14;;;;;;;7.15;4.22;;;4.90;1.00;;;;;;5040802;28;20491;-75
2024/01/29 01:22:40;;;;;;;5.38;4.32;;;4.90;99.90;;;;;;5056298;28;20071;-75
2024/01/29 01:25:06;;;;;;;6.72;4.38;;;4.90;1.00;;;;;;5055575;28;20140;-75
2024/01/29 01:27:32;;;;;;;7.90;4.40;;;4.80;99.90;;;;;;5053730;28;20049;-75
2024/01/29 01:29:59;;;;;;;8.80;4.57;;;4.90;1.00;;;;;;5054013;28;20036;-75
2024/01/29 01:32:25;;;;;;;7.18;4.65;;;4.80;1.00;;;;;;5037519;28;20040;-75
2024/01/29 01:34:50;;;;;;;8.60;4.40;;;5.00;1.00;;;;;;5054024;28;20475;-75
2024/01/29 01:37:16;;;;;;;5.72;4.15;;;4.90;1.00;;;;;;5055912;28;20036;-75
2024/01/29 01:39:45;;;;;;;5.85;4.07;;;4.80;1.00;;;;;;5057165;28;20040;-75
2024/01/29 01:42:11;;;;;;;7.78;4.65;;;4.90;1.00;;;;;;5037665;28;20059;-75
2024/01/29 01:44:37;;;;;;;5.80;4.25;;;4.90;1.00;;;;;;5039720;28;20036;-75
2024/01/29 01:47:03;;;;;;;5.72;4.10;;;4.90;1.00;;;;;;5054736;28;20109;-75
2024/01/29 01:49:29;;;;;;;7.45;4.50;;;4.70;1.00;;;;;;5054577;28;20063;-75
2024/01/29 01:51:55;;;;;;;6.40;4.35;;;4.60;1.00;;;;;;5056313;28;20495;-75
2024/01/29 01:54:21;;;;;;;6.80;4.50;;;4.60;42.50;;;;;;5042260;28;20040;-75
2024/01/29 01:56:48;;;;;;;7.20;4.82;;;4.50;73.30;;;;;;5037830;28;20503;-75
2024/01/29 01:59:14;;;;;;;8.82;4.82;;;4.50;99.90;;;;;;5039381;28;20107;-75
2024/01/29 02:01:40;;;;;;;7.70;4.68;;;4.50;99.90;;;;;;5053268;28;20117;-75
2024/01/29 02:04:06;;;;;;;5.88;4.93;;;4.60;99.90;;;;;;5055307;28;20040;-75
2024/01/29 02:06:32;;;;;;;7.10;4.50;;;4.60;99.90;;;;;;5055960;28;20028;-75
2024/01/29 02:09:01;;;;;;;7.40;4.70;;;4.60;99.90;;;;;;5052204;28;20328;-75
2024/01/29 02:11:27;;;;;;;5.63;4.60;;;4.50;99.90;;;;;;5038136;28;20133;-75
2024/01/29 02:13:52;;;;;;;7.63;4.75;;;4.50;99.90;;;;;;5054025;28;20484;-75
2024/01/29 02:16:18;;;;;;;6.68;4.55;;;4.60;99.90;;;;;;5054714;28;20044;-75
2024/01/29 02:18:44;;;;;;;7.03;4.70;;;4.40;99.90;;;;;;5055396;28;20040;-75
2024/01/29 02:21:12;;;;;;;7.82;5.18;;;4.40;99.90;;;;;;5052602;28;20372;-75
2024/01/29 02:23:42;;;;;;;7.13;5.03;;;4.40;99.90;;;;;;5065252;28;20474;-75
2024/01/29 02:26:07;;;;;;;8.45;5.25;;;4.30;99.90;;;;;;5054362;28;20168;-75
2024/01/29 02:28:33;;;;;;;7.97;4.80;;;4.40;99.90;;;;;;5034952;28;20128;-75
2024/01/29 02:30:59;;;;;;;9.13;5.07;;;4.30;99.90;;;;;;5051092;28;20068;-75
2024/01/29 02:33:25;;;;;;;7.55;4.68;;;4.40;99.90;;;;;;5038502;28;20139;-75
2024/01/29 02:35:50;;;;;;;7.30;4.35;;;4.40;99.90;;;;;;5055164;28;20090;-75
2024/01/29 02:38:16;;;;;;;6.72;4.72;;;4.30;99.90;;;;;;5055607;28;20049;-75
2024/01/29 02:40:42;;;;;;;7.43;5.20;;;4.20;99.90;;;;;;5053137;28;20067;-75
2024/01/29 02:43:08;;;;;;;7.97;4.70;;;4.20;99.90;;;;;;5037953;28;20060;-75
2024/01/29 02:45:33;;;;;;;8.32;5.10;;;4.20;99.90;;;;;;5053777;28;20044;-75
2024/01/29 02:47:59;;;;;;;5.85;4.60;;;4.20;99.90;;;;;;5034480;28;20214;-75
2024/01/29 02:50:29;;;;;;;7.43;4.47;;;4.10;99.90;;;;;;5038205;28;20454;-75
2024/01/29 02:52:55;;;;;;;6.70;4.75;;;4.10;99.90;;;;;;5054380;28;20404;-75
2024/01/29 02:55:20;;;;;;;7.65;4.50;;;4.20;99.90;;;;;;5038023;28;20037;-75
2024/01/29 02:57:46;;;;;;;6.70;4.57;;;4.10;99.90;;;;;;5053506;28;20033;-75
2024/01/29 03:00:12;;;;;;;8.85;5.05;;;4.30;99.90;;;;;;5055486;28;20056;-75
2024/01/29 03:02:38;;;;;;;7.00;4.63;;;4.20;99.90;;;;;;5035923;28;20505;-75
2024/01/29 03:05:04;;;;;;;5.88;4.90;;;4.20;99.90;;;;;;5055038;28;20119;-75
2024/01/29 03:07:29;;;;;;;8.57;5.60;;;4.20;99.90;;;;;;5053674;28;20198;-75
2024/01/29 03:09:55;;;;;;;6.15;4.68;;;4.10;99.90;;;;;;5038329;28;20098;-75
2024/01/29 03:12:21;;;;;;;7.68;5.10;;;4.10;1.00;;;;;;5053961;28;20487;-75
2024/01/29 03:14:47;;;;;;;9.02;5.28;;;4.00;1.00;;;;;;5055166;28;20075;-75
2024/01/29 03:17:13;;;;;;;6.93;4.93;;;4.00;1.00;;;;;;5037426;28;20540;-75
2024/01/29 03:19:39;;;;;;;7.97;5.13;;;4.00;1.00;;;;;;5058224;28;20048;-75
2024/01/29 03:22:05;;;;;;;6.72;4.95;;;4.00;1.00;;;;;;5040313;28;20237;-75
2024/01/29 03:24:31;;;;;;;10.68;5.47;;;3.90;1.00;;;;;;5058581;28;20036;-75
2024/01/29 03:26:56;;;;;;;8.07;5.10;;;3.80;1.00;;;;;;5039137;28;20032;-75
2024/01/29 03:29:22;;;;;;;6.93;4.82;;;3.80;1.00;;;;;;5057425;28;20044;-75
2024/01/29 03:31:48;;;;;;;6.05;4.95;;;3.90;24.90;;;;;;5056931;28;20116;-75
2024/01/29 03:34:16;;;;;;;10.43;5.68;;;3.80;5.60;;;;;;5042258;28;20059;-75
2024/01/29 03:36:46;;;;;;;7.57;5.20;;;3.80;8.20;;;;;;5041813;28;20770;-75
2024/01/29 03:39:12;;;;;;;7.60;5.18;;;3.70;31.20;;;;;;5057130;28;20048;-75
2024/01/29 03:41:38;;;;;;;7.13;5.28;;;3.70;96.90;;;;;;5043332;28;21993;-75
2024/01/29 03:44:04;;;;;;;7.78;5.80;;;3.60;99.90;;;;;;5057348;28;20036;-75
2024/01/29 03:46:30;;;;;;;7.88;5.45;;;3.60;99.90;;;;;;5057291;28;20040;-75
2024/01/29 03:48:55;;;;;;;8.43;5.40;;;3.60;99.90;;;;;;5057508;28;20124;-75
2024/01/29 03:51:21;;;;;;;8.55;5.80;;;3.50;99.90;;;;;;5059615;28;20032;-75
2024/01/29 03:53:47;;;;;;;7.70;5.45;;;3.60;99.90;;;;;;5039565;28;20040;-75
2024/01/29 03:56:15;;;;;;;9.05;5.63;;;3.50;99.90;;;;;;5056997;28;20050;-75
2024/01/29 03:58:40;;;;;;;8.63;5.40;;;3.50;99.90;;;;;;5058226;28;20067;-75
2024/01/29 04:01:06;;;;;;;8.02;5.30;;;3.60;99.90;;;;;;5057437;28;20826;-75
2024/01/29 04:03:31;;;;;;;7.72;5.43;;;3.60;99.90;;;;;;5056469;28;20042;-75
2024/01/29 04:05:57;;;;;;;6.93;5.13;;;3.60;99.90;;;;;;5039710;28;20037;-75
2024/01/29 04:08:23;;;;;;;6.88;5.22;;;3.50;99.90;;;;;;5041803;28;20056;-75
2024/01/29 04:10:51;;;;;;;9.60;6.15;;;3.50;99.90;;;;;;5042794;28;20075;-75
2024/01/29 04:13:17;;;;;;;7.85;5.35;;;3.50;99.90;;;;;;5041586;28;20036;-75
2024/01/29 04:15:42;;;;;;;9.48;5.80;;;3.40;99.90;;;;;;5058010;28;20475;-75
2024/01/29 04:18:08;;;;;;;8.40;5.30;;;3.50;99.90;;;;;;5039308;28;20434;-75
2024/01/29 04:20:34;;;;;;;8.02;5.47;;;3.50;99.90;;;;;;5041753;28;20036;-75
2024/01/29 04:22:59;;;;;;;9.05;5.03;;;3.50;99.90;;;;;;5036726;28;20070;-75
2024/01/29 04:25:25;;;;;;;8.45;5.88;;;3.50;99.90;;;;;;5058621;28;20412;-75
2024/01/29 04:27:51;;;;;;;7.82;5.70;;;3.60;99.90;;;;;;5059736;28;20044;-75
2024/01/29 04:30:17;;;;;;;7.13;5.55;;;3.60;99.90;;;;;;5041630;28;20375;-75
2024/01/29 04:32:42;;;;;;;9.35;6.03;;;3.70;99.90;;;;;;5041066;28;20036;-75
2024/01/29 04:35:08;;;;;;;8.82;5.97;;;3.70;99.90;;;;;;5042085;28;20265;-75
2024/01/29 04:37:34;;;;;;;6.97;5.78;;;3.60;99.90;;;;;;5059106;28;20033;-75
2024/01/29 04:40:00;;;;;;;6.85;5.63;;;3.60;99.90;;;;;;5057574;28;20067;-75
2024/01/29 04:42:25;;;;;;;10.13;5.53;;;3.60;99.90;;;;;;5059010;28;20029;-75
2024/01/29 04:44:51;;;;;;;7.35;5.68;;;3.70;99.90;;;;;;5055781;28;20177;-75
2024/01/29 04:47:18;;;;;;;9.07;6.07;;;3.70;99.90;;;;;;5056707;28;20127;-75
2024/01/29 04:49:43;;;;;;;9.23;5.93;;;3.70;99.90;;;;;;5041206;28;20399;-75
2024/01/29 04:52:09;;;;;;;7.97;5.53;;;3.80;99.90;;;;;;5039582;28;20391;-75
2024/01/29 04:54:35;;;;;;;8.40;6.05;;;3.80;99.90;;;;;;5058678;28;20143;-75
2024/01/29 04:57:00;;;;;;;8.30;6.00;;;3.80;99.90;;;;;;5036415;28;20498;-75
2024/01/29 04:59:26;;;;;;;8.00;5.95;;;3.80;99.90;;;;;;5056973;28;20091;-75
2024/01/29 05:01:52;;;;;;;8.93;6.00;;;3.80;99.90;;;;;;5055794;28;20134;-76
2024/01/29 05:04:17;;;;;;;9.35;5.88;;;3.80;99.90;;;;;;5040950;28;20166;-76
2024/01/29 05:06:43;;;;;;;9.50;6.35;;;3.80;99.90;;;;;;5055678;28;20041;-75
2024/01/29 05:09:09;;;;;;;8.77;6.00;;;3.80;99.90;;;;;;5054483;28;20441;-75
2024/01/29 05:11:39;;;;;;;9.13;5.88;;;3.80;99.90;;;;;;5038646;28;20502;-75
2024/01/29 05:14:05;;;;;;;8.70;6.20;;;3.70;99.90;;;;;;5060243;28;20052;-75
2024/01/29 05:16:34;;;;;;;7.90;5.95;;;3.60;99.90;;;;;;5038777;28;20075;-75
2024/01/29 05:18:59;;;;;;;7.95;6.05;;;3.60;1.00;;;;;;5057770;28;20440;-75
2024/01/29 05:21:28;;;;;;;9.32;6.05;;;3.70;1.00;;;;;;5056498;28;20056;-75
2024/01/29 05:23:53;;;;;;;7.38;5.95;;;3.70;1.00;;;;;;5055128;28;20471;-75
2024/01/29 05:26:19;;;;;;;8.30;6.22;;;3.70;1.00;;;;;;5054477;28;20063;-75
2024/01/29 05:28:45;;;;;;;11.30;6.50;;;3.70;1.00;;;;;;5056911;28;20043;-75
2024/01/29 05:31:11;;;;;;;7.20;5.80;;;3.70;1.00;;;;;;5036993;28;20162;-75
2024/01/29 05:33:36;;;;;;;8.57;5.95;;;3.70;1.00;;;;;;5053084;28;20586;-75
2024/01/29 05:36:02;;;;;;;9.45;6.35;;;3.70;1.00;;;;;;5038549;28;20037;-75
2024/01/29 05:38:28;;;;;;;8.40;6.53;;;3.70;1.00;;;;;;5055776;28;20040;-75
2024/01/29 05:40:54;;;;;;;10.82;6.28;;;3.70;1.00;;;;;;5054438;28;20041;-75
2024/01/29 05:43:20;;;;;;;9.65;6.53;;;3.80;1.00;;;;;;5053545;28;20295;-75
2024/01/29 05:45:46;;;;;;;8.15;5.95;;;3.80;1.00;;;;;;5054612;28;20568;-75
2024/01/29 05:48:12;;;;;;;9.38;6.68;;;3.80;1.00;;;;;;5053537;28;20052;-75
2024/01/29 05:50:38;;;;;;;10.00;7.15;;;3.70;1.00;;;;;;5040479;28;20032;-75
2024/01/29 05:53:03;;;;;;;8.05;6.38;;;3.70;1.00;;;;;;5056359;28;20549;-75
2024/01/29 05:55:29;;;;;;;8.15;6.13;;;3.70;1.00;;;;;;5055620;28;20557;-75
2024/01/29 05:57:55;;;;;;;11.07;6.90;;;3.70;1.00;;;;;;5054231;28;20040;-75
2024/01/29 06:00:21;;;;;;;9.13;6.53;;;3.80;40.50;;;;;;5054358;28;20036;-75
2024/01/29 06:02:48;;;;;;;8.20;6.53;;;3.80;12.30;;;;;;5035635;28;20040;-75
2024/01/29 06:05:14;;;;;;;7.85;6.13;;;3.80;23.90;;;;;;5039614;28;20032;-75
2024/01/29 06:07:40;;;;;;;12.07;6.60;;;3.90;24.20;;;;;;5055570;28;20577;-75
2024/01/29 06:10:08;;;;;;;8.93;6.28;;;3.80;25.20;;;;;;5039134;28;20045;-75
2024/01/29 06:12:34;;;;;;;7.97;6.57;;;3.90;64.30;;;;;;5054097;28;20380;-75
2024/01/29 06:15:00;;;;;;;9.55;6.32;;;3.90;77.20;;;;;;5053949;28;20032;-75
2024/01/29 06:17:26;;;;;;;8.93;7.03;;;3.90;66.50;;;;;;5035534;28;20663;-75
2024/01/29 06:19:52;;;;;;;10.13;6.75;;;3.90;65.80;;;;;;5054899;28;20072;-75
2024/01/29 06:22:18;;;;;;;8.68;6.95;;;3.90;91.20;;;;;;5052880;28;20063;-75
2024/01/29 06:24:43;;;;;;;11.30;6.75;;;4.00;99.90;;;;;;5041492;28;20040;-75
2024/01/29 06:27:09;;;;;;;9.02;6.75;;;3.90;99.90;;;;;;5035696;28;20403;-75
2024/01/29 06:29:37;;;;;;;10.00;7.38;;;3.90;99.90;;;;;;5054435;28;20044;-75
2024/01/29 06:32:04;;;;;;;9.23;7.03;;;3.90;99.90;;;;;;5052084;28;20048;-75
2024/01/29 06:34:33;;;;;;;9.73;6.63;;;4.00;99.90;;;;;;5035060;28;20236;-75
2024/01/29 06:36:59;;;;;;;9.18;7.05;;;4.00;99.90;;;;;;5039068;28;20040;-75
2024/01/29 06:39:24;;;;;;;11.35;7.22;;;4.00;99.90;;;;;;5054984;28;20024;-75
2024/01/29 06:41:50;;;;;;;8.63;7.00;;;4.10;99.90;;;;;;5053083;28;20044;-75
2024/01/29 06:44:16;;;;;;;9.25;6.63;;;4.00;99.90;;;;;;5039253;28;20085;-75
2024/01/29 06:46:42;;;;;;;10.52;6.85;;;4.10;99.90;;;;;;5052829;28;20056;-75
2024/01/29 06:49:08;;;;;;;10.82;7.18;;;4.10;99.90;;;;;;5052534;28;20071;-75
2024/01/29 06:51:34;;;;;;;9.32;6.75;;;4.10;99.90;;;;;;5053834;28;20036;-75
2024/01/29 06:54:03;;;;;;;10.07;7.15;;;4.10;99.90;;;;;;5055221;28;20055;-75
2024/01/29 06:56:29;;;;;;;10.45;6.90;;;4.10;99.90;;;;;;5037791;28;20036;-75
2024/01/29 06:58:55;;;;;;;9.73;7.40;;;4.10;99.90;;;;;;5036303;28;20046;-75
2024/01/29 07:01:20;;;;;;;8.80;6.65;;;4.10;99.90;;;;;;5054676;28;20048;-75
2024/01/29 07:03:46;;;;;;;9.68;7.32;;;4.10;99.90;;;;;;5036528;28;20067;-75
2024/01/29 07:06:12;;;;;;;9.95;6.95;;;4.10;99.90;;;;;;5052997;28;20040;-75
2024/01/29 07:08:38;;;;;;;11.98;7.53;;;4.10;99.90;;;;;;5039518;28;20041;-75
2024/01/29 07:11:06;;;;;;;10.23;7.30;;;4.00;99.90;;;;;;5053932;28;20046;-75
2024/01/29 07:13:32;;;;;;;10.55;7.50;;;4.00;99.90;;;;;;5054929;28;20099;-76
2024/01/29 07:15:59;;;;;;;11.43;7.22;;;4.00;99.90;;;;;;5038587;28;20543;-75
2024/01/29 07:18:25;;;;;;;10.05;7.25;;;4.00;99.90;;;;;;5051942;28;20821;-75
2024/01/29 07:20:51;;;;;;;10.48;7.70;;;4.00;99.90;;;;;;5055520;28;20372;-75
2024/01/29 07:23:17;;;;;;;12.35;7.57;;;3.90;99.90;;;;;;5035326;28;20037;-75
2024/01/29 07:25:43;;;;;;;12.52;7.90;;;3.90;99.90;;;;;;5034205;28;20056;-75
2024/01/29 07:28:09;;;;;;;12.18;8.00;;;3.90;99.90;;;;;;5051142;28;20039;-75
2024/01/29 07:30:35;;;;;;;10.25;7.28;;;3.90;99.90;;;;;;5058338;28;20492;-75
2024/01/29 07:33:01;;;;;;;10.25;7.05;;;3.90;99.90;;;;;;5047775;28;20158;-75
2024/01/29 07:35:27;;;;;;;12.10;7.72;;;3.90;99.90;;;;;;5053736;28;20079;-75
2024/01/29 07:37:53;;;;;;;9.75;7.20;;;3.90;99.90;;;;;;5052939;28;20035;-75
2024/01/29 07:40:20;;;;;;;9.98;7.25;;;3.90;99.90;;;;;;5032960;28;20037;-75
2024/01/29 07:42:49;;;;;;;12.73;7.63;;;3.90;99.90;;;;;;5052981;28;20094;-75
2024/01/29 07:45:15;;;;;;;11.90;8.00;;;4.00;99.90;;;;;;5037371;28;20044;-75
2024/01/29 07:47:40;;;;;;;8.80;7.15;;;3.90;99.90;;;;;;5051358;28;20091;-75
2024/01/29 07:50:06;;;;;;;8.85;7.05;;;3.90;99.90;;;;;;5053460;28;20646;-75
2024/01/29 07:52:32;;;;;;;10.35;7.68;;;4.00;99.90;;;;;;5036023;28;20179;-75
2024/01/29 07:54:59;;;;;;;10.32;7.55;;;4.00;99.90;;;;;;5048616;28;20041;-75
2024/01/29 07:57:25;;;;;;;12.63;7.22;;;4.10;99.90;;;;;;5036227;28;20458;-75
2024/01/29 07:59:50;;;;;;;11.27;7.18;;;4.10;99.90;;;;;;5050298;28;20036;-75
2024/01/29 08:02:16;;;;;;;9.88;7.32;;;4.20;99.90;;;;;;5034934;28;20106;-75
2024/01/29 08:04:42;;;;;;;10.85;7.97;;;4.20;99.90;;;;;;5056903;28;20125;-75
2024/01/29 08:07:07;;;;;;;10.23;7.65;;;4.20;99.90;;;;;;5055683;28;20118;-75
2024/01/29 08:09:33;;;;;;;10.50;7.78;;;4.40;99.90;;;;;;5054505;28;20454;-75
2024/01/29 08:11:59;;;;;;;11.38;7.85;;;4.30;99.90;;;;;;5056254;28;20500;-75
2024/01/29 08:14:25;;;;;;;11.38;7.82;;;4.40;99.90;;;;;;5056602;28;20036;-75
2024/01/29 08:16:51;;;;;;;12.60;8.20;;;4.50;1.00;;;;;;5054452;28;20071;-75
2024/01/29 08:19:17;;;;;;;12.07;8.55;;;4.50;99.90;;;;;;5038816;28;20104;-75
2024/01/29 08:21:42;;;;;;;12.45;8.00;;;4.60;99.90;;;;;;5039143;28;20298;-75
2024/01/29 08:24:08;;;;;;;9.98;7.88;;;4.70;99.90;;;;;;5037964;28;20036;-75
2024/01/29 08:26:34;;;;;;;10.40;7.82;;;4.70;99.90;;;;;;5040751;28;20063;-75
2024/01/29 08:29:00;;;;;;;12.65;7.65;;;4.80;99.90;;;;;;5057337;28;20071;-75
2024/01/29 08:31:25;;;;;;;11.45;8.23;;;4.90;99.90;;;;;;5039184;28;20102;-75
2024/01/29 08:33:51;;;;;;;8.77;7.47;;;5.00;99.90;;;;;;5054304;28;20036;-75
2024/01/29 08:36:20;;;;;;;11.15;8.15;;;5.00;99.90;;;;;;5040415;28;20037;-75
2024/01/29 08:38:46;;;;;;;11.68;8.07;;;5.00;99.90;;;;;;5057078;28;20402;-75
2024/01/29 08:41:12;;;;;;;12.68;7.50;;;5.10;99.90;;;;;;5038391;28;20040;-75
2024/01/29 08:43:38;;;;;;;11.32;8.20;;;5.20;99.90;;;;;;5057154;28;20656;-75
2024/01/29 08:46:04;;;;;;;10.68;8.23;;;5.30;99.90;;;;;;5056253;28;20040;-75
2024/01/29 08:48:30;;;;;;;10.48;7.93;;;5.30;99.90;;;;;;5056072;28;20125;-75
2024/01/29 08:50:56;;;;;;;10.85;7.45;;;5.40;99.90;;;;;;5040254;28;20819;-75
2024/01/29 08:53:22;;;;;;;12.32;8.10;;;5.40;99.90;;;;;;5042341;28;20047;-75
2024/01/29 08:55:47;;;;;;;11.85;7.85;;;5.40;99.90;;;;;;5058173;28;20064;-75
2024/01/29 08:58:15;;;;;;;9.90;7.90;;;5.50;99.90;;;;;;5038873;28;20024;-75
2024/01/29 09:00:40;;;;;;;12.65;8.52;;;5.50;99.90;;;;;;5057401;28;20048;-75
2024/01/29 09:03:07;;;;;;;10.65;7.80;;;5.50;99.90;;;;;;5054782;28;20052;-75
2024/01/29 09:05:32;;;;;;;12.02;8.43;;;5.60;99.90;;;;;;5057581;28;20048;-75
2024/01/29 09:07:59;;;;;;;9.82;8.02;;;5.60;99.90;;;;;;5056973;28;20522;-75
2024/01/29 09:10:24;;;;;;;9.93;8.20;;;5.70;99.90;;;;;;5039557;28;20072;-75
2024/01/29 09:12:50;;;;;;;12.35;8.50;;;5.70;99.90;;;;;;5054894;28;20067;-75
2024/01/29 09:15:16;;;;;;;12.98;8.20;;;5.70;99.90;;;;;;5040971;28;20062;-75
2024/01/29 09:17:44;;;;;;;10.80;8.40;;;5.70;99.90;;;;;;5037598;28;20044;-75
2024/01/29 09:20:12;;;;;;;13.02;8.60;;;5.80;99.90;;;;;;5041189;28;20098;-75
2024/01/29 09:22:37;;;;;;;13.10;9.07;;;5.80;99.90;;;;;;5042465;28;20053;-75
2024/01/29 09:25:04;;;;;;;13.05;8.50;;;5.80;99.90;;;;;;5044606;28;20048;-75
2024/01/29 09:27:31;;;;;;;12.20;8.52;;;5.90;99.90;;;;;;5038804;28;20043;-75
2024/01/29 09:29:56;;;;;;;8.90;7.78;;;6.10;99.90;;;;;;5038790;28;20064;-75
2024/01/29 09:32:25;;;;;;;13.63;8.85;;;6.10;99.90;;;;;;5055180;28;20462;-75
2024/01/29 09:34:51;;;;;;;12.20;8.43;;;6.10;99.90;;;;;;5037839;28;20037;-75
2024/01/29 09:37:18;;;;;;;11.05;8.75;;;6.20;99.90;;;;;;5055183;28;20277;-75
2024/01/29 09:39:44;;;;;;;11.88;8.50;;;6.30;99.90;;;;;;5058888;28;20093;-75
2024/01/29 09:42:20;;;;;;;12.02;8.73;;;6.30;99.90;;;;;;5058581;28;20098;-75
2024/01/29 09:44:50;;;;;;;12.65;8.43;;;6.40;99.90;;;;;;5040660;28;20043;-75
2024/01/29 09:47:19;;;;;;;10.23;8.35;;;6.40;99.90;;;;;;5037835;28;20048;-75
2024/01/29 09:49:45;;;;;;;13.75;8.45;;;6.40;99.90;;;;;;5055412;28;20043;-75
2024/01/29 09:52:13;;;;;;;13.93;10.63;;;6.40;99.90;;;;;;5035578;28;20037;-75
2024/01/29 09:54:40;;;;;;;10.07;8.70;;;6.50;99.90;;;;;;5037993;28;20107;-75
2024/01/29 09:57:09;;;;;;;10.50;8.68;;;6.40;99.90;;;;;;5056354;28;20075;-75
2024/01/29 09:59:35;;;;;;;10.60;8.57;;;6.50;99.90;;;;;;5040150;28;20040;-75
2024/01/29 10:02:03;;;;;;;12.45;8.80;;;6.50;99.90;;;;;;5054144;28;20254;-75
2024/01/29 10:04:29;;;;;;;12.65;8.82;;;6.50;99.90;;;;;;5039820;28;20109;-75
2024/01/29 10:06:54;;;;;;;11.40;8.30;;;6.50;99.90;;;;;;5057164;28;20040;-75
2024/01/29 10:09:20;;;;;;;11.15;8.65;;;6.40;99.90;;;;;;5039291;28;20123;-75
2024/01/29 10:11:46;;;;;;;13.63;8.73;;;6.50;99.90;;;;;;5055746;28;20033;-75
2024/01/29 10:14:12;;;;;;;12.98;9.15;;;6.50;99.90;;;;;;5039506;28;20438;-75
2024/01/29 10:16:38;;;;;;;11.68;8.63;;;6.60;99.90;;;;;;5054871;28;20056;-75
2024/01/29 10:19:05;;;;;;;11.73;8.73;;;6.60;99.90;;;;;;5036623;28;20040;-75
2024/01/29 10:21:38;;;;;;;13.15;8.40;;;6.70;99.90;;;;;;5037389;28;20044;-75
2024/01/29 10:24:04;;;;;;;11.25;8.27;;;6.80;99.90;;;;;;5034708;28;20036;-75
2024/01/29 10:26:30;;;;;;;14.00;8.75;;;6.80;99.90;;;;;;5054377;28;20182;-75
2024/01/29 10:29:03;;;;;;;13.82;9.27;;;6.90;99.90;;;;;;5037741;28;20040;-75
2024/01/29 10:31:29;;;;;;;13.13;8.27;;;7.00;99.90;;;;;;5037255;28;20036;-75
2024/01/29 10:33:56;;;;;;;13.10;9.27;;;7.10;99.90;;;;;;5054423;28;20045;-75
2024/01/29 10:36:22;;;;;;;15.25;8.55;;;7.20;99.90;;;;;;5054878;28;20554;-75
2024/01/29 10:38:48;;;;;;;12.70;8.82;;;7.20;99.90;;;;;;5054258;28;20040;-75
2024/01/29 10:41:20;;;;;;;11.90;8.68;;;7.30;99.90;;;;;;5053171;28;20032;-75
2024/01/29 10:43:51;;;;;;;12.57;9.27;;;7.40;99.90;;;;;;5035844;28;20706;-75
2024/01/29 10:46:23;;;;;;;15.30;8.75;;;7.50;99.90;;;;;;5052266;28;20416;-75
2024/01/29 10:48:51;;;;;;;11.30;8.82;;;7.70;99.90;;;;;;5051025;28;20040;-75
2024/01/29 10:51:18;;;;;;;13.23;8.95;;;7.70;99.90;;;;;;5038325;28;20036;-75
2024/01/29 10:53:47;;;;;;;13.18;9.77;;;7.80;99.90;;;;;;5055982;28;20573;-75
2024/01/29 10:56:15;;;;;;;14.90;9.65;;;7.80;99.90;;;;;;5054008;28;20064;-75
2024/01/29 10:58:42;;;;;;;15.50;9.35;;;7.90;99.90;;;;;;5054675;28;20033;-75
2024/01/29 11:01:10;;;;;;;13.43;9.50;;;7.90;99.90;;;;;;5037383;28;20674;-75
2024/01/29 11:03:36;;;;;;;14.13;9.60;;;8.00;99.90;;;;;;5052383;28;20048;-75
2024/01/29 11:06:13;;;;;;;14.38;9.65;;;8.10;99.90;;;;;;5054376;28;20342;-75
2024/01/29 11:08:41;;;;;;;13.13;9.02;;;8.10;99.90;;;;;;5052337;28;20044;-75
2024/01/29 11:11:11;;;;;;;14.68;9.68;;;8.20;99.90;;;;;;5038248;28;20044;-75
2024/01/29 11:13:37;;;;;;;14.18;9.65;;;8.20;99.90;;;;;;5054696;28;20040;-75
2024/01/29 11:16:06;;;;;;;13.32;10.07;;;8.20;99.90;;;;;;5039291;28;20043;-75
2024/01/29 11:18:35;;;;;;;16.00;10.35;;;8.30;99.90;;;;;;5037717;28;20049;-75
2024/01/29 11:21:02;;;;;;;12.60;9.88;;;8.30;99.90;;;;;;5053068;28;20301;-75
2024/01/29 11:23:28;;;;;;;14.57;10.48;;;8.40;1.00;;;;;;5055999;28;20189;-75
2024/01/29 11:25:59;;;;;;;13.38;10.13;;;8.40;99.90;;;;;;5054400;28;20543;-75
2024/01/29 11:28:26;;;;;;;15.35;9.93;;;8.50;99.90;;;;;;5055372;28;20469;-75
2024/01/29 11:30:55;;;;;;;15.95;10.50;;;8.70;99.90;;;;;;5053872;28;20158;-75
2024/01/29 11:33:22;;;;;;;14.13;9.60;;;8.70;99.90;;;;;;5053330;28;20036;-75
2024/01/29 11:35:55;;;;;;;16.17;10.50;;;8.80;99.90;;;;;;5058119;28;20032;-75
2024/01/29 11:38:22;;;;;;;16.20;11.48;;;8.70;99.90;;;;;;5059467;28;20036;-75
2024/01/29 11:40:49;;;;;;;14.55;10.30;;;8.70;99.90;;;;;;5041879;28;20044;-75
2024/01/29 11:43:18;;;;;;;17.30;10.93;;;8.80;1.00;;;;;;5038211;28;20074;-75
2024/01/29 11:45:52;;;;;;;16.30;10.70;;;8.80;1.00;;;;;;5059022;28;20373;-74
2024/01/29 11:48:20;;;;;;;14.55;10.63;;;8.90;7.80;;;;;;5056064;28;20037;-74
2024/01/29 11:50:48;;;;;;;16.85;10.50;;;8.80;1.00;;;;;;5058579;28;20036;-75
2024/01/29 11:53:15;;;;;;;15.35;9.88;;;8.90;1.00;;;;;;5040664;28;20044;-75
2024/01/29 11:55:42;;;;;;;17.13;10.13;;;8.90;1.00;;;;;;5042937;28;20037;-75
2024/01/29 11:58:13;;;;;;;15.60;10.77;;;8.90;1.00;;;;;;5059424;28;20097;-74
2024/01/29 12:00:39;;;;;;;17.23;11.13;;;9.00;99.90;;;;;;5058823;28;20333;-75
2024/01/29 12:03:08;;;;;;;15.38;11.43;;;9.10;99.90;;;;;;5039878;28;20275;-75
2024/01/29 12:05:34;;;;;;;20.73;12.15;;;9.10;99.90;;;;;;5042027;28;20116;-75
2024/01/29 12:08:00;;;;;;;24.10;13.05;;;9.20;99.90;;;;;;5055929;28;20040;-74
2024/01/29 12:10:28;;;;;;;23.58;13.52;;;9.20;1.00;;;;;;5055942;28;20032;-74
2024/01/29 12:12:54;;;;;;;24.65;13.15;;;9.10;10.60;;;;;;5057408;28;20048;-75
2024/01/29 12:15:20;;;;;;;25.40;13.50;;;9.10;99.90;;;;;;5059004;28;20448;-74
2024/01/29 12:17:50;;;;;;;25.08;13.90;;;9.10;99.90;;;;;;5037842;28;20047;-74
2024/01/29 12:20:16;;;;;;;25.05;14.13;;;9.00;99.90;;;;;;5039846;28;20044;-74
2024/01/29 12:22:42;;;;;;;26.63;13.82;;;9.10;99.90;;;;;;5057790;28;20041;-74
2024/01/29 12:25:12;;;;;;;26.67;14.23;;;9.10;99.90;;;;;;5040682;28;20523;-74
2024/01/29 12:27:41;;;;;;;25.23;14.13;;;9.20;1.00;;;;;;5041302;28;20037;-74
2024/01/29 12:30:13;;;;;;;23.67;13.23;;;9.10;1.00;;;;;;5056150;28;20052;-74
2024/01/29 12:32:42;;;;;;;23.15;14.45;;;9.10;1.00;;;;;;5055892;28;20040;-74
2024/01/29 12:35:37;;;;;;;23.30;13.57;;;9.20;58.50;;;;;;5038252;28;20129;-74
2024/01/29 12:38:08;;;;;;;26.27;14.25;;;9.10;99.90;;;;;;5040272;28;20135;-74
2024/01/29 12:40:34;;;;;;;28.50;14.57;;;9.10;99.90;;;;;;5057423;28;20041;-74
2024/01/29 12:43:05;;;;;;;23.88;13.93;;;9.10;99.90;;;;;;5075479;28;20036;-74
2024/01/29 12:45:34;;;;;;;25.00;14.32;;;9.10;99.90;;;;;;5071946;28;20335;-74
2024/01/29 12:48:10;;;;;;;23.55;14.27;;;9.10;1.00;;;;;;5054475;28;20156;-74
2024/01/29 12:50:39;;;;;;;22.42;13.70;;;9.10;99.90;;;;;;5042969;28;20048;-74